createdAt,value
2024-02-18T00:02:02.182Z,24.10
2024-02-18T00:04:31.614Z,23.83
2024-02-18T00:06:59.355Z,24.40
2024-02-18T00:09:26.645Z,25.27
2024-02-18T00:11:53.825Z,26.50
2024-02-18T00:14:22.351Z,25.52
2024-02-18T00:16:49.878Z,24.08
2024-02-18T00:19:17.228Z,24.65
2024-02-18T00:21:44.616Z,24.55
2024-02-18T00:24:11.855Z,22.70
2024-02-18T00:26:50.005Z,24.98
2024-02-18T00:29:25.121Z,23.42
2024-02-18T00:31:52.469Z,23.92
2024-02-18T00:34:23.551Z,24.33
2024-02-18T00:36:52.133Z,24.13
2024-02-18T00:39:19.656Z,23.45
2024-02-18T00:41:46.909Z,25.35
2024-02-18T00:44:14.215Z,23.80
2024-02-18T00:46:47.904Z,24.90
2024-02-18T00:49:22.809Z,23.00
2024-02-18T00:51:50.865Z,22.95
2024-02-18T00:54:18.529Z,22.88
2024-02-18T00:56:48.400Z,24.10
2024-02-18T00:59:15.662Z,22.85
2024-02-18T01:01:42.936Z,23.45
2024-02-18T01:04:11.789Z,24.38
2024-02-18T01:06:39.258Z,23.35
2024-02-18T01:09:06.488Z,23.33
2024-02-18T01:11:33.694Z,24.02
2024-02-18T01:14:00.980Z,23.73
2024-02-18T01:16:30.251Z,25.25
2024-02-18T01:18:57.656Z,26.15
2024-02-18T01:21:25.020Z,27.33
2024-02-18T01:23:52.272Z,23.35
2024-02-18T01:26:19.459Z,25.40
2024-02-18T01:28:46.613Z,26.42
2024-02-18T01:31:13.886Z,26.85
2024-02-18T01:33:44.109Z,27.38
2024-02-18T01:36:11.415Z,27.57
2024-02-18T01:38:38.541Z,24.85
2024-02-18T01:41:05.760Z,27.60
2024-02-18T01:43:33.296Z,27.25
2024-02-18T01:46:00.856Z,27.80
2024-02-18T01:48:28.478Z,28.15
2024-02-18T01:50:56.005Z,27.77
2024-02-18T01:53:23.371Z,28.13
2024-02-18T01:55:50.833Z,30.60
2024-02-18T01:58:18.091Z,29.80
2024-02-18T02:00:45.916Z,29.08
2024-02-18T02:03:14.895Z,26.90
2024-02-18T02:05:45.359Z,29.13
2024-02-18T02:08:12.620Z,30.08
2024-02-18T02:10:39.855Z,30.55
2024-02-18T02:13:07.220Z,30.02
2024-02-18T02:15:35.040Z,29.88
2024-02-18T02:18:02.575Z,29.05
2024-02-18T02:20:29.914Z,28.15
2024-02-18T02:22:57.114Z,26.70
2024-02-18T02:25:24.564Z,26.63
2024-02-18T02:27:58.987Z,26.73
2024-02-18T02:30:28.097Z,27.48
2024-02-18T02:32:55.882Z,25.48
2024-02-18T02:35:23.666Z,26.63
2024-02-18T02:37:50.919Z,24.63
2024-02-18T02:40:18.145Z,23.95
2024-02-18T02:42:45.303Z,23.55
2024-02-18T02:45:12.908Z,25.13
2024-02-18T02:47:40.149Z,22.83
2024-02-18T02:50:07.610Z,23.48
2024-02-18T02:52:34.960Z,25.30
2024-02-18T02:55:02.291Z,25.35
2024-02-18T02:57:29.555Z,25.17
2024-02-18T02:59:56.913Z,26.50
2024-02-18T03:02:24.095Z,24.50
2024-02-18T03:04:51.725Z,25.95
2024-02-18T03:07:19.108Z,24.88
2024-02-18T03:09:46.347Z,26.20
2024-02-18T03:12:13.549Z,24.65
2024-02-18T03:14:40.774Z,25.17
2024-02-18T03:17:08.472Z,24.77
2024-02-18T03:19:35.678Z,24.35
2024-02-18T03:22:02.979Z,23.60
2024-02-18T03:24:30.230Z,26.52
2024-02-18T03:26:57.385Z,25.98
2024-02-18T03:29:25.365Z,24.17
2024-02-18T03:31:56.973Z,24.55
2024-02-18T03:34:24.260Z,25.35
2024-02-18T03:36:51.529Z,25.58
2024-02-18T03:39:21.929Z,25.92
2024-02-18T03:41:50.720Z,24.23
2024-02-18T03:44:17.918Z,25.90
2024-02-18T03:46:45.266Z,25.23
2024-02-18T03:49:12.486Z,22.60
2024-02-18T03:51:39.904Z,22.30
2024-02-18T03:54:07.085Z,22.33
2024-02-18T03:56:34.830Z,20.17
2024-02-18T03:59:02.125Z,20.33
2024-02-18T04:01:29.470Z,19.55
2024-02-18T04:03:56.789Z,18.52
2024-02-18T04:06:24.179Z,17.17
2024-02-18T04:08:51.376Z,18.35
2024-02-18T04:11:18.656Z,17.42
2024-02-18T04:13:45.871Z,17.83
2024-02-18T04:16:13.130Z,17.02
2024-02-18T04:18:40.385Z,14.85
2024-02-18T04:21:07.657Z,17.33
2024-02-18T04:23:35.049Z,15.15
2024-02-18T04:26:02.201Z,16.38
2024-02-18T04:28:29.496Z,15.15
2024-02-18T04:30:56.708Z,14.48
2024-02-18T04:33:24.047Z,15.88
2024-02-18T04:35:51.339Z,13.93
2024-02-18T04:38:18.625Z,13.80
2024-02-18T04:40:45.843Z,13.32
2024-02-18T04:43:13.117Z,11.88
2024-02-18T04:45:40.326Z,11.75
2024-02-18T04:48:07.665Z,12.15
2024-02-18T04:50:34.878Z,11.75
2024-02-18T04:53:02.019Z,11.18
2024-02-18T04:55:29.181Z,10.63
2024-02-18T04:57:56.384Z,11.45
2024-02-18T05:00:23.628Z,10.40
2024-02-18T05:02:50.941Z,10.13
2024-02-18T05:05:18.212Z,11.23
2024-02-18T05:07:45.391Z,9.95
2024-02-18T05:10:12.663Z,10.27
2024-02-18T05:12:39.908Z,9.63
2024-02-18T05:15:07.340Z,9.10
2024-02-18T05:17:34.678Z,9.45
2024-02-18T05:20:10.229Z,8.95
2024-02-18T05:22:43.507Z,8.93
2024-02-18T05:25:10.742Z,9.43
2024-02-18T05:27:37.989Z,9.43
2024-02-18T05:30:05.367Z,9.98
2024-02-18T05:32:32.547Z,8.90
2024-02-18T05:34:59.918Z,8.70
2024-02-18T05:37:27.084Z,9.57
2024-02-18T05:39:54.243Z,9.07
2024-02-18T05:42:21.814Z,9.30
2024-02-18T05:44:49.033Z,8.73
2024-02-18T05:47:16.261Z,8.38
2024-02-18T05:49:44.706Z,8.15
2024-02-18T05:52:12.413Z,8.07
2024-02-18T05:54:39.810Z,7.88
2024-02-18T05:57:08.240Z,7.18
2024-02-18T05:59:35.507Z,7.75
2024-02-18T06:02:02.762Z,7.68
2024-02-18T06:04:30.276Z,6.55
2024-02-18T06:06:59.003Z,6.63
2024-02-18T06:09:26.414Z,7.22
2024-02-18T06:11:54.124Z,5.63
2024-02-18T06:14:21.933Z,5.60
2024-02-18T06:16:49.115Z,6.68
2024-02-18T06:19:17.898Z,5.97
2024-02-18T06:21:45.740Z,5.05
2024-02-18T06:24:13.247Z,6.13
2024-02-18T06:26:41.548Z,5.13
2024-02-18T06:29:09.011Z,5.53
2024-02-18T06:31:36.266Z,5.32
2024-02-18T06:34:03.700Z,4.97
2024-02-18T06:36:37.132Z,4.50
2024-02-18T06:39:04.813Z,4.20
2024-02-18T06:41:33.170Z,4.32
2024-02-18T06:44:00.518Z,4.25
2024-02-18T06:46:27.896Z,4.88
2024-02-18T06:48:55.290Z,4.55
2024-02-18T06:51:23.142Z,3.95
2024-02-18T06:53:50.570Z,3.90
2024-02-18T06:56:20.478Z,4.28
2024-02-18T06:58:47.590Z,4.22
2024-02-18T07:01:14.898Z,4.43
2024-02-18T07:03:42.621Z,4.20
2024-02-18T07:06:09.927Z,3.63
2024-02-18T07:08:37.185Z,3.53
2024-02-18T07:11:04.721Z,3.05
2024-02-18T07:13:31.914Z,3.10
2024-02-18T07:15:59.097Z,3.30
2024-02-18T07:18:26.393Z,3.22
2024-02-18T07:20:53.646Z,2.80
2024-02-18T07:23:20.860Z,2.63
2024-02-18T07:25:48.025Z,2.28
2024-02-18T07:28:17.145Z,2.65
2024-02-18T07:30:44.465Z,2.40
2024-02-18T07:33:11.727Z,2.42
2024-02-18T07:35:39.565Z,2.45
2024-02-18T07:38:06.833Z,2.10
2024-02-18T07:40:33.998Z,1.88
2024-02-18T07:43:01.176Z,1.88
2024-02-18T07:45:28.480Z,2.00
2024-02-18T07:47:56.037Z,1.80
2024-02-18T07:50:23.432Z,1.50
2024-02-18T07:52:50.899Z,1.88
2024-02-18T07:55:18.246Z,1.42
2024-02-18T07:57:45.437Z,1.60
2024-02-18T08:00:13.011Z,1.40
2024-02-18T08:02:40.183Z,1.10
2024-02-18T08:05:09.258Z,1.20
2024-02-18T08:07:36.785Z,1.30
2024-02-18T08:10:06.119Z,1.42
2024-02-18T08:12:33.518Z,1.15
2024-02-18T08:15:00.748Z,1.05
2024-02-18T08:17:28.056Z,1.08
2024-02-18T08:19:55.295Z,1.30
2024-02-18T08:22:22.538Z,1.20
2024-02-18T08:24:49.868Z,0.90
2024-02-18T08:27:17.087Z,0.70
2024-02-18T08:29:44.522Z,0.88
2024-02-18T08:32:11.666Z,0.80
2024-02-18T08:34:38.986Z,1.15
2024-02-18T08:37:06.339Z,0.98
2024-02-18T08:39:33.539Z,0.90
2024-02-18T08:42:00.709Z,1.05
2024-02-18T08:44:27.909Z,1.27
2024-02-18T08:46:55.060Z,0.93
2024-02-18T08:49:22.263Z,1.10
2024-02-18T08:51:49.568Z,1.02
2024-02-18T08:54:16.811Z,0.93
2024-02-18T08:56:43.997Z,2.03
2024-02-18T08:59:11.679Z,1.58
2024-02-18T09:01:38.845Z,1.27
2024-02-18T09:04:06.225Z,1.67
2024-02-18T09:06:33.685Z,1.63
2024-02-18T09:09:00.880Z,1.13
2024-02-18T09:11:28.036Z,1.63
2024-02-18T09:13:55.275Z,1.70
2024-02-18T09:16:22.446Z,1.38
2024-02-18T09:18:49.759Z,1.10
2024-02-18T09:21:17.122Z,1.20
2024-02-18T09:23:44.416Z,1.08
2024-02-18T09:26:11.655Z,1.30
2024-02-18T09:28:38.901Z,0.90
2024-02-18T09:31:07.730Z,1.10
2024-02-18T09:33:35.090Z,1.00
2024-02-18T09:36:02.528Z,0.93
2024-02-18T09:38:31.298Z,1.10
2024-02-18T09:40:58.646Z,1.10
2024-02-18T09:43:28.027Z,0.90
2024-02-18T09:45:56.622Z,1.27
2024-02-18T09:48:24.040Z,1.27
2024-02-18T09:50:51.474Z,0.80
2024-02-18T09:53:19.171Z,1.10
2024-02-18T09:55:48.039Z,1.02
2024-02-18T09:58:16.313Z,0.90
2024-02-18T10:00:44.537Z,1.40
2024-02-18T10:03:11.872Z,1.00
2024-02-18T10:05:40.644Z,1.00
2024-02-18T10:08:08.247Z,1.10
2024-02-18T10:10:36.075Z,1.23
2024-02-18T10:13:04.356Z,1.13
2024-02-18T10:15:31.713Z,1.10
2024-02-18T10:17:59.319Z,1.25
2024-02-18T10:20:30.036Z,1.15
2024-02-18T10:22:57.466Z,0.73
2024-02-18T10:25:25.095Z,0.88
2024-02-18T10:27:57.298Z,1.10
2024-02-18T10:30:24.725Z,0.90
2024-02-18T10:32:52.127Z,1.05
2024-02-18T10:35:19.889Z,1.13
2024-02-18T10:37:49.135Z,1.08
2024-02-18T10:40:28.646Z,1.35
2024-02-18T10:43:00.842Z,1.40
2024-02-18T10:45:28.769Z,1.70
2024-02-18T10:47:57.152Z,1.65
2024-02-18T10:50:26.734Z,1.83
2024-02-18T10:53:03.510Z,1.83
2024-02-18T10:55:35.238Z,1.90
2024-02-18T10:58:07.505Z,3.83
2024-02-18T11:00:39.222Z,2.00
2024-02-18T11:03:25.355Z,2.45
2024-02-18T11:05:53.601Z,1.92
2024-02-18T11:08:21.694Z,2.38
2024-02-18T11:10:49.303Z,2.65
2024-02-18T11:13:17.049Z,2.40
2024-02-18T11:15:44.657Z,2.38
2024-02-18T11:18:14.692Z,2.22
2024-02-18T11:20:42.272Z,2.60
2024-02-18T11:23:09.425Z,2.63
2024-02-18T11:25:36.772Z,2.80
2024-02-18T11:28:04.308Z,2.80
2024-02-18T11:30:32.098Z,2.42
2024-02-18T11:33:00.925Z,2.50
2024-02-18T11:35:28.157Z,2.35
2024-02-18T11:37:57.700Z,2.67
2024-02-18T11:40:25.175Z,2.28
2024-02-18T11:42:52.461Z,2.13
2024-02-18T11:45:21.652Z,1.92
2024-02-18T11:47:52.873Z,1.92
2024-02-18T11:50:21.156Z,1.92
2024-02-18T11:52:49.202Z,2.03
2024-02-18T11:55:17.538Z,1.98
2024-02-18T11:57:45.229Z,2.17
2024-02-18T12:00:17.986Z,2.30
2024-02-18T12:02:51.093Z,2.42
2024-02-18T12:05:19.511Z,2.47
2024-02-18T12:07:48.070Z,2.58
2024-02-18T12:10:15.442Z,2.85
2024-02-18T12:12:42.926Z,2.88
2024-02-18T12:15:10.372Z,2.50
2024-02-18T12:17:37.771Z,2.53
2024-02-18T12:20:08.180Z,2.60
2024-02-18T12:22:38.811Z,2.40
2024-02-18T12:25:10.139Z,2.38
2024-02-18T12:27:37.533Z,2.30
2024-02-18T12:30:04.844Z,2.67
2024-02-18T12:32:32.051Z,2.72
2024-02-18T12:34:59.318Z,2.28
2024-02-18T12:37:34.829Z,1.85
2024-02-18T12:40:04.771Z,1.90
2024-02-18T12:42:33.748Z,2.08
2024-02-18T12:45:38.689Z,2.10
2024-02-18T12:47:50.212Z,2.10
2024-02-18T12:50:17.713Z,1.95
2024-02-18T12:52:46.690Z,1.70
2024-02-18T12:55:14.675Z,2.00
2024-02-18T12:57:42.490Z,2.03
2024-02-18T13:00:10.249Z,1.77
2024-02-18T13:02:37.571Z,1.70
2024-02-18T13:05:05.213Z,2.13
2024-02-18T13:07:32.707Z,1.88
2024-02-18T13:10:00.096Z,2.10
2024-02-18T13:12:27.989Z,2.15
2024-02-18T13:14:55.202Z,2.40
2024-02-18T13:17:22.440Z,2.00
2024-02-18T13:19:49.657Z,2.13
2024-02-18T13:22:17.342Z,1.77
2024-02-18T13:24:44.595Z,1.52
2024-02-18T13:27:11.858Z,1.75
2024-02-18T13:29:39.925Z,1.58
2024-02-18T13:32:07.291Z,1.85
2024-02-18T13:34:34.459Z,1.73
2024-02-18T13:37:01.771Z,1.58
2024-02-18T13:39:29.067Z,1.60
2024-02-18T13:41:57.675Z,1.65
2024-02-18T13:44:24.906Z,1.92
2024-02-18T13:46:52.100Z,1.55
2024-02-18T13:49:19.501Z,1.60
2024-02-18T13:51:46.710Z,1.85
2024-02-18T13:54:14.678Z,1.83
2024-02-18T13:56:42.565Z,1.88
2024-02-18T13:59:09.797Z,1.42
2024-02-18T14:01:41.193Z,2.10
2024-02-18T14:06:35.879Z,1.73
2024-02-18T14:09:07.390Z,1.70
2024-02-18T14:11:34.709Z,1.20
2024-02-18T14:14:01.865Z,1.63
2024-02-18T14:16:36.404Z,1.58
2024-02-18T14:19:06.643Z,1.42
2024-02-18T14:21:34.485Z,1.42
2024-02-18T14:24:01.822Z,1.25
2024-02-18T14:26:28.995Z,1.67
2024-02-18T14:28:56.292Z,2.55
2024-02-18T14:31:23.599Z,2.25
2024-02-18T14:33:51.012Z,1.63
2024-02-18T14:36:18.686Z,1.55
2024-02-18T14:38:45.939Z,1.67
2024-02-18T14:41:13.151Z,2.15
2024-02-18T14:43:41.504Z,1.73
2024-02-18T14:46:14.718Z,2.40
2024-02-18T14:48:42.241Z,2.00
2024-02-18T14:51:12.473Z,2.15
2024-02-18T14:53:51.209Z,2.40
2024-02-18T14:56:21.510Z,2.63
2024-02-18T14:58:49.422Z,2.10
2024-02-18T15:01:16.932Z,2.42
2024-02-18T15:03:44.277Z,2.20
2024-02-18T15:06:12.960Z,2.25
2024-02-18T15:08:40.341Z,1.88
2024-02-18T15:11:07.519Z,2.25
2024-02-18T15:13:34.673Z,1.90
2024-02-18T15:16:01.905Z,2.40
2024-02-18T15:18:29.089Z,2.10
2024-02-18T15:20:56.966Z,2.28
2024-02-18T15:23:24.234Z,1.38
2024-02-18T15:25:52.732Z,1.70
2024-02-18T15:28:20.606Z,1.52
2024-02-18T15:30:47.957Z,1.58
2024-02-18T15:33:15.143Z,1.50
2024-02-18T15:35:45.376Z,1.40
2024-02-18T15:38:12.574Z,1.52
2024-02-18T15:40:39.783Z,1.40
2024-02-18T15:43:07.486Z,1.83
2024-02-18T15:45:36.201Z,2.38
2024-02-18T15:48:03.670Z,1.75
2024-02-18T15:50:30.900Z,1.60
2024-02-18T15:52:59.984Z,1.60
2024-02-18T15:55:29.450Z,1.20
2024-02-18T15:57:58.252Z,1.50
2024-02-18T16:00:25.601Z,1.92
2024-02-18T16:02:53.413Z,1.70
2024-02-18T16:05:20.658Z,1.70
2024-02-18T16:07:47.951Z,1.90
2024-02-18T16:10:16.278Z,2.45
2024-02-18T16:12:43.626Z,2.22
2024-02-18T16:15:10.955Z,3.05
2024-02-18T16:17:38.184Z,2.30
2024-02-18T16:20:05.627Z,2.40
2024-02-18T16:22:32.932Z,2.42
2024-02-18T16:25:00.077Z,2.83
2024-02-18T16:27:27.469Z,2.28
2024-02-18T16:29:54.695Z,2.03
2024-02-18T16:32:23.737Z,1.77
2024-02-18T16:34:51.042Z,1.90
2024-02-18T16:37:18.501Z,2.35
2024-02-18T16:39:46.171Z,2.30
2024-02-18T16:42:13.663Z,1.70
2024-02-18T16:44:41.027Z,1.50
2024-02-18T16:47:08.208Z,1.70
2024-02-18T16:49:35.405Z,2.28
2024-02-18T16:52:02.789Z,1.98
2024-02-18T16:54:30.003Z,2.50
2024-02-18T16:56:57.583Z,1.70
2024-02-18T16:59:24.831Z,1.83
2024-02-18T17:01:53.406Z,1.60
2024-02-18T17:04:20.675Z,1.83
2024-02-18T17:06:47.978Z,2.20
2024-02-18T17:09:17.411Z,1.75
2024-02-18T17:11:44.642Z,1.60
2024-02-18T17:14:12.177Z,2.45
2024-02-18T17:16:39.484Z,2.00
2024-02-18T17:19:07.611Z,1.75
2024-02-18T17:21:35.609Z,1.92
2024-02-18T17:24:03.244Z,1.70
2024-02-18T17:26:30.917Z,1.75
2024-02-18T17:28:58.172Z,1.63
2024-02-18T17:31:26.411Z,1.52
2024-02-18T17:33:57.498Z,1.38
2024-02-18T17:36:25.449Z,1.60
2024-02-18T17:38:52.886Z,1.77
2024-02-18T17:41:20.400Z,2.10
2024-02-18T17:43:47.619Z,1.90
2024-02-18T17:46:18.554Z,1.95
2024-02-18T17:48:46.005Z,2.10
2024-02-18T17:51:13.398Z,2.08
2024-02-18T17:53:40.576Z,1.80
2024-02-18T17:56:08.599Z,1.40
2024-02-18T17:58:36.349Z,1.60
2024-02-18T18:01:03.693Z,1.55
2024-02-18T18:03:31.346Z,1.75
2024-02-18T18:06:01.052Z,1.73
2024-02-18T18:08:28.611Z,1.70
2024-02-18T18:10:55.853Z,1.73
2024-02-18T18:13:23.525Z,1.48
2024-02-18T18:15:50.838Z,1.50
2024-02-18T18:18:18.200Z,1.30
2024-02-18T18:20:45.500Z,1.40
2024-02-18T18:23:12.661Z,1.50
2024-02-18T18:25:40.036Z,1.38
2024-02-18T18:28:07.622Z,1.60
2024-02-18T18:30:36.003Z,1.30
2024-02-18T18:33:03.627Z,1.52
2024-02-18T18:35:31.023Z,1.60
2024-02-18T18:37:58.201Z,1.48
2024-02-18T18:40:25.426Z,1.40
2024-02-18T18:42:52.712Z,1.38
2024-02-18T18:45:19.962Z,1.45
2024-02-18T18:47:48.408Z,1.33
2024-02-18T18:50:16.828Z,1.50
2024-02-18T18:52:44.024Z,1.00
2024-02-18T18:55:11.246Z,1.00
2024-02-18T18:57:38.528Z,0.80
2024-02-18T19:00:07.044Z,1.23
2024-02-18T19:02:34.328Z,1.00
2024-02-18T19:05:01.713Z,0.88
2024-02-18T19:07:33.456Z,0.90
2024-02-18T19:10:02.715Z,1.30
2024-02-18T19:12:30.404Z,1.10
2024-02-18T19:14:57.592Z,1.00
2024-02-18T19:17:26.794Z,1.00
2024-02-18T19:19:54.110Z,0.88
2024-02-18T19:22:21.489Z,1.08
2024-02-18T19:24:52.739Z,1.00
2024-02-18T19:27:20.131Z,0.98
2024-02-18T19:29:47.792Z,1.00
2024-02-18T19:32:15.055Z,1.02
2024-02-18T19:34:42.355Z,1.10
2024-02-18T19:37:09.697Z,1.00
2024-02-18T19:39:37.163Z,1.00
2024-02-18T19:42:04.542Z,1.08
2024-02-18T19:44:31.773Z,0.82
2024-02-18T19:46:59.244Z,0.95
2024-02-18T19:49:30.067Z,0.80
2024-02-18T19:51:57.558Z,1.20
2024-02-18T19:54:29.646Z,0.80
2024-02-18T19:56:57.176Z,0.90
2024-02-18T19:59:27.015Z,1.05
2024-02-18T20:01:55.950Z,1.00
2024-02-18T20:04:23.335Z,0.80
2024-02-18T20:06:51.343Z,0.90
2024-02-18T20:09:18.549Z,0.68
2024-02-18T20:11:51.306Z,0.80
2024-02-18T20:14:21.806Z,0.70
2024-02-18T20:16:48.928Z,1.00
2024-02-18T20:19:16.642Z,0.82
2024-02-18T20:21:44.060Z,0.90
2024-02-18T20:24:11.228Z,0.80
2024-02-18T20:26:38.381Z,0.88
2024-02-18T20:29:05.565Z,0.77
2024-02-18T20:31:32.715Z,0.93
2024-02-18T20:33:59.892Z,1.00
2024-02-18T20:36:27.292Z,0.73
2024-02-18T20:38:56.598Z,0.77
2024-02-18T20:41:23.843Z,0.90
2024-02-18T20:43:51.062Z,0.73
2024-02-18T20:46:20.126Z,1.23
2024-02-18T20:48:48.058Z,0.70
2024-02-18T20:51:15.414Z,1.00
2024-02-18T20:53:42.659Z,0.90
2024-02-18T20:56:09.831Z,0.77
2024-02-18T20:58:39.314Z,1.20
2024-02-18T21:01:08.349Z,0.80
2024-02-18T21:03:35.732Z,1.05
2024-02-18T21:06:03.000Z,0.88
2024-02-18T21:08:30.825Z,0.77
2024-02-18T21:10:58.174Z,0.70
2024-02-18T21:13:25.547Z,1.00
2024-02-18T21:15:52.785Z,1.05
2024-02-18T21:18:20.018Z,0.80
2024-02-18T21:20:47.370Z,0.73
2024-02-18T21:23:14.518Z,1.27
2024-02-18T21:25:41.787Z,0.70
2024-02-18T21:28:09.097Z,0.93
2024-02-18T21:30:36.275Z,1.00
2024-02-18T21:33:03.805Z,0.85
2024-02-18T21:35:31.127Z,1.10
2024-02-18T21:37:58.232Z,0.90
2024-02-18T21:40:25.390Z,0.90
2024-02-18T21:42:52.700Z,1.00
2024-02-18T21:45:19.956Z,1.15
2024-02-18T21:47:47.389Z,1.10
2024-02-18T21:50:15.876Z,0.90
2024-02-18T21:52:43.442Z,1.15
2024-02-18T21:55:10.755Z,0.75
2024-02-18T21:57:38.067Z,0.90
2024-02-18T22:00:06.938Z,0.80
2024-02-18T22:02:34.385Z,1.15
2024-02-18T22:05:01.786Z,0.70
2024-02-18T22:07:29.082Z,0.85
2024-02-18T22:09:56.354Z,1.00
2024-02-18T22:12:23.611Z,1.00
2024-02-18T22:14:50.768Z,1.05
2024-02-18T22:17:17.902Z,0.90
2024-02-18T22:19:46.746Z,0.98
2024-02-18T22:22:14.021Z,1.30
2024-02-18T22:24:41.291Z,1.50
2024-02-18T22:27:08.499Z,1.42
2024-02-18T22:29:35.616Z,1.48
2024-02-18T22:32:02.742Z,1.63
2024-02-18T22:34:30.084Z,1.52
2024-02-18T22:36:57.362Z,1.85
2024-02-18T22:39:24.553Z,1.95
2024-02-18T22:41:51.780Z,1.88
2024-02-18T22:44:18.930Z,2.10
2024-02-18T22:46:46.471Z,1.90
2024-02-18T22:49:13.830Z,2.33
2024-02-18T22:51:51.838Z,2.30
2024-02-18T22:54:19.588Z,2.75
2024-02-18T22:56:46.738Z,2.35
2024-02-18T22:59:13.918Z,2.83
2024-02-18T23:01:41.303Z,2.85
2024-02-18T23:04:08.635Z,2.60
2024-02-18T23:06:35.886Z,2.20
2024-02-18T23:09:03.545Z,2.35
2024-02-18T23:11:30.994Z,2.30
2024-02-18T23:13:58.492Z,2.40
2024-02-18T23:16:25.781Z,2.60
2024-02-18T23:18:53.062Z,2.40
2024-02-18T23:21:20.293Z,2.67
2024-02-18T23:23:47.728Z,2.50
2024-02-18T23:26:14.849Z,1.92
2024-02-18T23:28:41.999Z,2.08
2024-02-18T23:31:09.990Z,2.03
2024-02-18T23:33:37.310Z,1.73
2024-02-18T23:36:04.665Z,1.60
2024-02-18T23:38:31.946Z,1.80
2024-02-18T23:41:03.160Z,1.80
2024-02-18T23:45:57.558Z,1.55
2024-02-18T23:48:24.725Z,1.60
2024-02-18T23:50:51.874Z,1.67
2024-02-18T23:53:19.051Z,1.60
2024-02-18T23:55:46.223Z,1.70
2024-02-18T23:58:13.450Z,1.92
